PWSweather.com
Personal Weather Stations
Station Observations
NIGHT1
EastleighGB

EastleighGB

Lat: 50.966307, Lon: -1.380982

Elevation: 78

Station Type: Davis VP2 with daytime FARS

Latest ConditionsUpdated 11:25:00 AM GMT Wednesday, Jul 27, 2016
Currently Today's Max Today's Min Today's Average
Temperature 68.1°F20.1°C 69.2°F20.7°C 62.4°F16.9°C 63.6°F17.6°C
Dew Point 62.7°F17.1°C 64.4°F18.0°C 59.4°F15.2°C 61.2°F16.2°C
Winds 5.0 mph WSW8.0 kmh WSW 5.1 mph WSW8.2 kmh WSW - 3.1 mph 5.0 kmh
Wind Gusts 14.0 mph22.5 kmh 14.0 mph22.5 kmh - -
Humidity 83% 96% 82% 92%
Pressure 29.96 in1014.6 mb 30.06 in1017.9 mb 29.96 in1014.6 mb -
Precipitation - 0.02 in0.5 mm - -
Hour Temp Dew Point Humidity Winds Wind Gusts Pressure Precip Precip Rate Daily Precip Total
11:25 AM 68.1°F20.1°C 62.7°F17.1°C 83% 5.0 mph WSW8.0 kmh WSW 14.0 mph22.5 kmh 29.96 in1014.6 mb 0.00 in0.0 mm 0.00 in0.0 mm 0.02 in0.5 mm
11:20 AM 68.2°F20.1°C 62.8°F17.1°C 83% 5.0 mph SW8.0 kmh SW 12.0 mph19.3 kmh 29.97 in1014.9 mb 0.00 in0.0 mm 0.00 in0.0 mm 0.02 in0.5 mm
11:15 AM 68.2°F20.1°C 62.8°F17.1°C 83% 5.0 mph SW8.0 kmh SW 12.0 mph19.3 kmh 29.97 in1014.9 mb 0.00 in0.0 mm 0.00 in0.0 mm 0.02 in0.5 mm
11:10 AM 68.4°F20.2°C 63.0°F17.2°C 83% 5.1 mph WSW8.2 kmh WSW 12.0 mph19.3 kmh 29.96 in1014.6 mb 0.00 in0.0 mm 0.00 in0.0 mm 0.02 in0.5 mm
11:05 AM 68.5°F20.3°C 63.1°F17.3°C 83% 4.8 mph WSW7.7 kmh WSW 11.0 mph17.7 kmh 29.96 in1014.6 mb 0.00 in0.0 mm 0.00 in0.0 mm 0.02 in0.5 mm
11:00 AM 68.8°F20.4°C 63.1°F17.3°C 82% 3.7 mph WSW6.0 kmh WSW 12.0 mph19.3 kmh 29.96 in1014.6 mb 0.00 in0.0 mm 0.00 in0.0 mm 0.02 in0.5 mm
10:55 AM 69.2°F20.7°C 63.8°F17.7°C 83% 3.0 mph WSW4.8 kmh WSW 12.0 mph19.3 kmh 29.96 in1014.6 mb 0.00 in0.0 mm 0.00 in0.0 mm 0.02 in0.5 mm
10:50 AM 69.1°F20.6°C 64.4°F18.0°C 85% 2.9 mph SW4.7 kmh SW 10.0 mph16.1 kmh 29.96 in1014.6 mb 0.00 in0.0 mm 0.00 in0.0 mm 0.02 in0.5 mm
10:45 AM 68.3°F20.2°C 64.3°F17.9°C 87% 2.9 mph SW4.7 kmh SW 10.0 mph16.1 kmh 29.96 in1014.6 mb 0.00 in0.0 mm 0.00 in0.0 mm 0.02 in0.5 mm
10:40 AM 67.5°F19.7°C 63.8°F17.7°C 88% 3.5 mph SW5.6 kmh SW 10.0 mph16.1 kmh 29.96 in1014.6 mb 0.00 in0.0 mm 0.00 in0.0 mm 0.02 in0.5 mm
10:35 AM 66.8°F19.3°C 63.1°F17.3°C 88% 3.2 mph SW5.1 kmh SW 11.0 mph17.7 kmh 29.96 in1014.6 mb 0.00 in0.0 mm 0.00 in0.0 mm 0.02 in0.5 mm
10:30 AM 66.4°F19.1°C 62.7°F17.1°C 88% 2.1 mph WSW3.4 kmh WSW 11.0 mph17.7 kmh 29.96 in1014.6 mb 0.00 in0.0 mm 0.00 in0.0 mm 0.02 in0.5 mm
10:25 AM 66.2°F19.0°C 62.9°F17.2°C 89% 2.1 mph WSW3.4 kmh WSW 7.0 mph11.3 kmh 29.96 in1014.6 mb 0.00 in0.0 mm 0.00 in0.0 mm 0.02 in0.5 mm
10:20 AM 66.2°F19.0°C 63.2°F17.3°C 90% 2.8 mph WSW4.5 kmh WSW 8.0 mph12.9 kmh 29.96 in1014.6 mb 0.00 in0.0 mm 0.00 in0.0 mm 0.02 in0.5 mm
10:15 AM 66.0°F18.9°C 63.0°F17.2°C 90% 3.6 mph WSW5.8 kmh WSW 9.0 mph14.5 kmh 29.96 in1014.6 mb 0.00 in0.0 mm 0.00 in0.0 mm 0.02 in0.5 mm
10:10 AM 65.7°F18.7°C 62.4°F16.9°C 89% 4.0 mph WSW6.4 kmh WSW 9.0 mph14.5 kmh 29.96 in1014.6 mb 0.00 in0.0 mm 0.00 in0.0 mm 0.02 in0.5 mm
10:05 AM 65.8°F18.8°C 62.8°F17.1°C 90% 4.0 mph SW6.4 kmh SW 11.0 mph17.7 kmh 29.97 in1014.9 mb 0.00 in0.0 mm 0.00 in0.0 mm 0.02 in0.5 mm
10:00 AM 65.6°F18.7°C 62.6°F17.0°C 90% 4.0 mph SW6.4 kmh SW 11.0 mph17.7 kmh 29.97 in1014.9 mb 0.00 in0.0 mm 0.00 in0.0 mm 0.02 in0.5 mm
09:55 AM 65.7°F18.7°C 62.7°F17.1°C 90% 3.9 mph WSW6.3 kmh WSW 11.0 mph17.7 kmh 29.97 in1014.9 mb 0.00 in0.0 mm 0.00 in0.0 mm 0.02 in0.5 mm
09:50 AM 65.7°F18.7°C 63.0°F17.2°C 91% 3.4 mph WSW5.5 kmh WSW 11.0 mph17.7 kmh 29.97 in1014.9 mb 0.00 in0.0 mm 0.00 in0.0 mm 0.02 in0.5 mm
09:45 AM 65.4°F18.6°C 62.7°F17.1°C 91% 2.8 mph SW4.5 kmh SW 8.0 mph12.9 kmh 29.97 in1014.9 mb 0.00 in0.0 mm 0.00 in0.0 mm 0.02 in0.5 mm
09:40 AM 65.3°F18.5°C 62.9°F17.2°C 92% 2.3 mph SW3.7 kmh SW 8.0 mph12.9 kmh 29.97 in1014.9 mb 0.00 in0.0 mm 0.00 in0.0 mm 0.02 in0.5 mm
09:35 AM 65.0°F18.3°C 62.6°F17.0°C 92% 2.1 mph SW3.4 kmh SW 8.0 mph12.9 kmh 29.97 in1014.9 mb 0.00 in0.0 mm 0.00 in0.0 mm 0.02 in0.5 mm
09:30 AM 64.8°F18.2°C 62.4°F16.9°C 92% 2.1 mph SW3.4 kmh SW 9.0 mph14.5 kmh 29.97 in1014.9 mb 0.00 in0.0 mm 0.00 in0.0 mm 0.02 in0.5 mm
09:25 AM 64.6°F18.1°C 62.2°F16.8°C 92% 2.0 mph SW3.2 kmh SW 9.0 mph14.5 kmh 29.97 in1014.9 mb 0.00 in0.0 mm 0.00 in0.0 mm 0.02 in0.5 mm
09:20 AM 64.5°F18.1°C 62.1°F16.7°C 92% 2.0 mph SW3.2 kmh SW 7.0 mph11.3 kmh 29.97 in1014.9 mb 0.01 in0.3 mm 0.00 in0.0 mm 0.02 in0.5 mm
09:15 AM 64.6°F18.1°C 62.5°F16.9°C 93% 2.0 mph SW3.2 kmh SW 8.0 mph12.9 kmh 29.97 in1014.9 mb 0.01 in0.3 mm 0.00 in0.0 mm 0.02 in0.5 mm
09:10 AM 64.6°F18.1°C 62.5°F16.9°C 93% 2.3 mph SW3.7 kmh SW 8.0 mph12.9 kmh 29.97 in1014.9 mb 0.01 in0.3 mm 0.00 in0.0 mm 0.02 in0.5 mm
09:05 AM 64.7°F18.2°C 62.6°F17.0°C 93% 3.2 mph SW5.1 kmh SW 9.0 mph14.5 kmh 29.97 in1014.9 mb 0.01 in0.3 mm 0.00 in0.0 mm 0.02 in0.5 mm
09:00 AM 64.5°F18.1°C 62.4°F16.9°C 93% 3.7 mph SW6.0 kmh SW 9.0 mph14.5 kmh 29.97 in1014.9 mb 0.01 in0.3 mm 0.00 in0.0 mm 0.02 in0.5 mm
08:55 AM 64.4°F18.0°C 62.3°F16.8°C 93% 3.3 mph SW5.3 kmh SW 9.0 mph14.5 kmh 29.96 in1014.6 mb 0.01 in0.3 mm 0.00 in0.0 mm 0.02 in0.5 mm
08:50 AM 64.2°F17.9°C 62.1°F16.7°C 93% 2.5 mph SW4.0 kmh SW 9.0 mph14.5 kmh 29.96 in1014.6 mb 0.01 in0.3 mm 0.00 in0.0 mm 0.02 in0.5 mm
08:45 AM 64.3°F17.9°C 62.5°F16.9°C 94% 2.5 mph SW4.0 kmh SW 8.0 mph12.9 kmh 29.96 in1014.6 mb 0.01 in0.3 mm 0.00 in0.0 mm 0.02 in0.5 mm
08:40 AM 64.0°F17.8°C 62.2°F16.8°C 94% 3.5 mph SW5.6 kmh SW 7.0 mph11.3 kmh 29.96 in1014.6 mb 0.01 in0.3 mm 0.00 in0.0 mm 0.02 in0.5 mm
08:35 AM 63.8°F17.7°C 62.0°F16.7°C 94% 3.9 mph SW6.3 kmh SW 9.0 mph14.5 kmh 29.96 in1014.6 mb 0.01 in0.3 mm 0.00 in0.0 mm 0.02 in0.5 mm
08:30 AM 63.6°F17.6°C 61.8°F16.6°C 94% 3.4 mph SW5.5 kmh SW 11.0 mph17.7 kmh 29.96 in1014.6 mb 0.01 in0.3 mm 0.00 in0.0 mm 0.02 in0.5 mm
08:25 AM 63.7°F17.6°C 61.9°F16.6°C 94% 3.0 mph SW4.8 kmh SW 11.0 mph17.7 kmh 29.96 in1014.6 mb 0.01 in0.3 mm 0.12 in3.0 mm 0.02 in0.5 mm
08:20 AM 63.9°F17.7°C 62.4°F16.9°C 95% 3.0 mph SW4.8 kmh SW 9.0 mph14.5 kmh 29.96 in1014.6 mb 0.00 in0.0 mm 0.00 in0.0 mm 0.02 in0.5 mm
08:15 AM 63.6°F17.6°C 62.1°F16.7°C 95% 3.0 mph SW4.8 kmh SW 9.0 mph14.5 kmh 29.96 in1014.6 mb 0.00 in0.0 mm 0.00 in0.0 mm 0.02 in0.5 mm
08:10 AM 63.5°F17.5°C 62.0°F16.7°C 95% 3.0 mph SW4.8 kmh SW 9.0 mph14.5 kmh 29.97 in1014.9 mb 0.00 in0.0 mm 0.00 in0.0 mm 0.02 in0.5 mm
08:05 AM 63.3°F17.4°C 61.8°F16.6°C 95% 3.0 mph SW4.8 kmh SW 10.0 mph16.1 kmh 29.97 in1014.9 mb 0.00 in0.0 mm 0.00 in0.0 mm 0.02 in0.5 mm
08:00 AM 63.3°F17.4°C 61.8°F16.6°C 95% 3.0 mph SW4.8 kmh SW 10.0 mph16.1 kmh 29.97 in1014.9 mb 0.00 in0.0 mm 0.00 in0.0 mm 0.02 in0.5 mm
07:55 AM 63.3°F17.4°C 61.8°F16.6°C 95% 3.0 mph SW4.8 kmh SW 10.0 mph16.1 kmh 29.97 in1014.9 mb 0.00 in0.0 mm 0.00 in0.0 mm 0.02 in0.5 mm
07:50 AM 63.1°F17.3°C 61.6°F16.4°C 95% 3.0 mph SW4.8 kmh SW 10.0 mph16.1 kmh 29.97 in1014.9 mb 0.00 in0.0 mm 0.00 in0.0 mm 0.02 in0.5 mm
07:45 AM 63.1°F17.3°C 61.6°F16.4°C 95% 3.0 mph WSW4.8 kmh WSW 9.0 mph14.5 kmh 29.96 in1014.6 mb 0.00 in0.0 mm 0.00 in0.0 mm 0.02 in0.5 mm
07:40 AM 63.0°F17.2°C 61.5°F16.4°C 95% 3.1 mph WSW5.0 kmh WSW 11.0 mph17.7 kmh 29.97 in1014.9 mb 0.00 in0.0 mm 0.00 in0.0 mm 0.02 in0.5 mm
07:35 AM 62.9°F17.2°C 61.4°F16.3°C 95% 3.5 mph SW5.6 kmh SW 11.0 mph17.7 kmh 29.97 in1014.9 mb 0.00 in0.0 mm 0.00 in0.0 mm 0.02 in0.5 mm
07:30 AM 62.9°F17.2°C 61.4°F16.3°C 95% 3.8 mph SW6.1 kmh SW 10.0 mph16.1 kmh 29.97 in1014.9 mb 0.00 in0.0 mm 0.00 in0.0 mm 0.02 in0.5 mm
07:25 AM 62.9°F17.2°C 61.4°F16.3°C 95% 3.4 mph SW5.5 kmh SW 10.0 mph16.1 kmh 29.97 in1014.9 mb 0.00 in0.0 mm 0.00 in0.0 mm 0.02 in0.5 mm
07:20 AM 62.8°F17.1°C 61.3°F16.3°C 95% 3.0 mph SW4.8 kmh SW 8.0 mph12.9 kmh 29.97 in1014.9 mb 0.00 in0.0 mm 0.00 in0.0 mm 0.02 in0.5 mm
07:15 AM 62.9°F17.2°C 61.7°F16.5°C 96% 3.3 mph SW5.3 kmh SW 8.0 mph12.9 kmh 29.97 in1014.9 mb 0.00 in0.0 mm 0.00 in0.0 mm 0.02 in0.5 mm
07:10 AM 62.8°F17.1°C 61.3°F16.3°C 95% 3.8 mph SW6.1 kmh SW 9.0 mph14.5 kmh 29.97 in1014.9 mb 0.00 in0.0 mm 0.00 in0.0 mm 0.02 in0.5 mm
07:05 AM 62.7°F17.1°C 61.2°F16.2°C 95% 3.6 mph SW5.8 kmh SW 10.0 mph16.1 kmh 29.97 in1014.9 mb 0.00 in0.0 mm 0.00 in0.0 mm 0.02 in0.5 mm
07:00 AM 62.7°F17.1°C 61.2°F16.2°C 95% 3.2 mph SW5.1 kmh SW 10.0 mph16.1 kmh 29.97 in1014.9 mb 0.00 in0.0 mm 0.00 in0.0 mm 0.02 in0.5 mm
06:55 AM 62.7°F17.1°C 61.2°F16.2°C 95% 3.1 mph SW5.0 kmh SW 10.0 mph16.1 kmh 29.97 in1014.9 mb 0.00 in0.0 mm 0.00 in0.0 mm 0.02 in0.5 mm
06:50 AM 62.6°F17.0°C 61.1°F16.2°C 95% 3.0 mph SW4.8 kmh SW 10.0 mph16.1 kmh 29.97 in1014.9 mb 0.00 in0.0 mm 0.00 in0.0 mm 0.02 in0.5 mm
06:45 AM 62.7°F17.1°C 61.2°F16.2°C 95% 3.1 mph SW5.0 kmh SW 8.0 mph12.9 kmh 29.97 in1014.9 mb 0.00 in0.0 mm 0.00 in0.0 mm 0.02 in0.5 mm
06:40 AM 62.6°F17.0°C 61.1°F16.2°C 95% 3.6 mph SW5.8 kmh SW 11.0 mph17.7 kmh 29.97 in1014.9 mb 0.00 in0.0 mm 0.00 in0.0 mm 0.02 in0.5 mm
06:35 AM 62.6°F17.0°C 61.1°F16.2°C 95% 4.0 mph SW6.4 kmh SW 11.0 mph17.7 kmh 29.97 in1014.9 mb 0.00 in0.0 mm 0.00 in0.0 mm 0.02 in0.5 mm
06:30 AM 62.6°F17.0°C 61.1°F16.2°C 95% 4.0 mph SW6.4 kmh SW 9.0 mph14.5 kmh 29.97 in1014.9 mb 0.00 in0.0 mm 0.00 in0.0 mm 0.02 in0.5 mm
06:25 AM 62.6°F17.0°C 61.1°F16.2°C 95% 4.0 mph SW6.4 kmh SW 9.0 mph14.5 kmh 29.97 in1014.9 mb 0.00 in0.0 mm 0.00 in0.0 mm 0.02 in0.5 mm
06:20 AM 62.6°F17.0°C 61.1°F16.2°C 95% 3.4 mph SW5.5 kmh SW 9.0 mph14.5 kmh 29.97 in1014.9 mb 0.00 in0.0 mm 0.00 in0.0 mm 0.02 in0.5 mm
06:15 AM 62.6°F17.0°C 61.1°F16.2°C 95% 2.6 mph SW4.2 kmh SW 9.0 mph14.5 kmh 29.97 in1014.9 mb 0.00 in0.0 mm 0.00 in0.0 mm 0.02 in0.5 mm
06:10 AM 62.6°F17.0°C 61.4°F16.3°C 96% 2.7 mph SW4.3 kmh SW 7.0 mph11.3 kmh 29.97 in1014.9 mb 0.00 in0.0 mm 0.00 in0.0 mm 0.02 in0.5 mm
06:05 AM 62.6°F17.0°C 61.4°F16.3°C 96% 3.1 mph SW5.0 kmh SW 12.0 mph19.3 kmh 29.97 in1014.9 mb 0.00 in0.0 mm 0.00 in0.0 mm 0.02 in0.5 mm
06:00 AM 62.6°F17.0°C 61.4°F16.3°C 96% 3.1 mph SW5.0 kmh SW 12.0 mph19.3 kmh 29.97 in1014.9 mb 0.01 in0.3 mm 0.00 in0.0 mm 0.02 in0.5 mm
05:55 AM 62.5°F16.9°C 61.3°F16.3°C 96% 2.7 mph SW4.3 kmh SW 10.0 mph16.1 kmh 29.97 in1014.9 mb 0.01 in0.3 mm 0.00 in0.0 mm 0.02 in0.5 mm
05:50 AM 62.5°F16.9°C 61.3°F16.3°C 96% 2.7 mph SSW4.3 kmh SSW 9.0 mph14.5 kmh 29.97 in1014.9 mb 0.01 in0.3 mm 0.00 in0.0 mm 0.02 in0.5 mm
05:45 AM 62.5°F16.9°C 61.3°F16.3°C 96% 3.4 mph S5.5 kmh S 10.0 mph16.1 kmh 29.97 in1014.9 mb 0.01 in0.3 mm 0.00 in0.0 mm 0.02 in0.5 mm
05:40 AM 62.5°F16.9°C 61.3°F16.3°C 96% 3.9 mph SSW6.3 kmh SSW 10.0 mph16.1 kmh 29.97 in1014.9 mb 0.01 in0.3 mm 0.00 in0.0 mm 0.02 in0.5 mm
05:35 AM 62.5°F16.9°C 61.3°F16.3°C 96% 3.7 mph SW6.0 kmh SW 12.0 mph19.3 kmh 29.97 in1014.9 mb 0.01 in0.3 mm 0.00 in0.0 mm 0.02 in0.5 mm
05:30 AM 62.5°F16.9°C 61.3°F16.3°C 96% 3.2 mph SW5.1 kmh SW 12.0 mph19.3 kmh 29.97 in1014.9 mb 0.01 in0.3 mm 0.00 in0.0 mm 0.02 in0.5 mm
05:25 AM 62.5°F16.9°C 61.3°F16.3°C 96% 3.2 mph SW5.1 kmh SW 8.0 mph12.9 kmh 29.98 in1015.2 mb 0.01 in0.3 mm 0.00 in0.0 mm 0.02 in0.5 mm
05:20 AM 62.5°F16.9°C 61.3°F16.3°C 96% 3.3 mph SW5.3 kmh SW 8.0 mph12.9 kmh 29.98 in1015.2 mb 0.01 in0.3 mm 0.00 in0.0 mm 0.02 in0.5 mm
05:15 AM 62.6°F17.0°C 61.4°F16.3°C 96% 3.1 mph SW5.0 kmh SW 11.0 mph17.7 kmh 29.98 in1015.2 mb 0.01 in0.3 mm 0.00 in0.0 mm 0.02 in0.5 mm
05:10 AM 62.6°F17.0°C 61.1°F16.2°C 95% 3.0 mph SW4.8 kmh SW 11.0 mph17.7 kmh 29.98 in1015.2 mb 0.01 in0.3 mm 0.00 in0.0 mm 0.02 in0.5 mm
05:05 AM 62.5°F16.9°C 61.0°F16.1°C 95% 3.5 mph SW5.6 kmh SW 10.0 mph16.1 kmh 29.98 in1015.2 mb 0.01 in0.3 mm 0.12 in3.0 mm 0.02 in0.5 mm
05:00 AM 62.6°F17.0°C 61.1°F16.2°C 95% 4.2 mph SW6.8 kmh SW 11.0 mph17.7 kmh 29.98 in1015.2 mb 0.00 in0.0 mm 0.00 in0.0 mm 0.01 in0.3 mm
04:55 AM 62.6°F17.0°C 61.1°F16.2°C 95% 3.9 mph SW6.3 kmh SW 11.0 mph17.7 kmh 29.98 in1015.2 mb 0.01 in0.3 mm 0.00 in0.0 mm 0.01 in0.3 mm
04:50 AM 62.6°F17.0°C 61.1°F16.2°C 95% 3.2 mph SW5.1 kmh SW 10.0 mph16.1 kmh 29.98 in1015.2 mb 0.01 in0.3 mm 0.00 in0.0 mm 0.01 in0.3 mm
04:45 AM 62.6°F17.0°C 61.1°F16.2°C 95% 3.0 mph SW4.8 kmh SW 10.0 mph16.1 kmh 29.98 in1015.2 mb 0.01 in0.3 mm 0.00 in0.0 mm 0.01 in0.3 mm
04:40 AM 62.6°F17.0°C 61.1°F16.2°C 95% 3.0 mph SW4.8 kmh SW 10.0 mph16.1 kmh 29.98 in1015.2 mb 0.01 in0.3 mm 0.00 in0.0 mm 0.01 in0.3 mm
04:35 AM 62.7°F17.1°C 61.2°F16.2°C 95% 3.0 mph SW4.8 kmh SW 9.0 mph14.5 kmh 29.98 in1015.2 mb 0.01 in0.3 mm 0.00 in0.0 mm 0.01 in0.3 mm
04:30 AM 62.6°F17.0°C 61.1°F16.2°C 95% 3.1 mph SSW5.0 kmh SSW 9.0 mph14.5 kmh 29.98 in1015.2 mb 0.01 in0.3 mm 0.00 in0.0 mm 0.01 in0.3 mm
04:25 AM 62.6°F17.0°C 61.1°F16.2°C 95% 3.6 mph SW5.8 kmh SW 9.0 mph14.5 kmh 29.98 in1015.2 mb 0.01 in0.3 mm 0.00 in0.0 mm 0.01 in0.3 mm
04:20 AM 62.6°F17.0°C 61.1°F16.2°C 95% 3.8 mph SW6.1 kmh SW 8.0 mph12.9 kmh 29.98 in1015.2 mb 0.01 in0.3 mm 0.00 in0.0 mm 0.01 in0.3 mm
04:15 AM 62.6°F17.0°C 60.8°F16.0°C 94% 3.3 mph SSW5.3 kmh SSW 10.0 mph16.1 kmh 29.98 in1015.2 mb 0.01 in0.3 mm 0.00 in0.0 mm 0.01 in0.3 mm
04:10 AM 62.6°F17.0°C 60.8°F16.0°C 94% 3.0 mph SSW4.8 kmh SSW 10.0 mph16.1 kmh 29.98 in1015.2 mb 0.01 in0.3 mm 0.00 in0.0 mm 0.01 in0.3 mm
04:05 AM 62.6°F17.0°C 60.8°F16.0°C 94% 3.0 mph SSW4.8 kmh SSW 9.0 mph14.5 kmh 29.98 in1015.2 mb 0.01 in0.3 mm 0.00 in0.0 mm 0.01 in0.3 mm
04:00 AM 62.6°F17.0°C 60.8°F16.0°C 94% 3.0 mph SSW4.8 kmh SSW 9.0 mph14.5 kmh 29.98 in1015.2 mb 0.01 in0.3 mm 0.01 in0.3 mm 0.01 in0.3 mm
03:55 AM 62.6°F17.0°C 60.8°F16.0°C 94% 3.0 mph SSW4.8 kmh SSW 8.0 mph12.9 kmh 29.98 in1015.2 mb 0.00 in0.0 mm 0.00 in0.0 mm 0.00 in0.0 mm
03:50 AM 62.6°F17.0°C 60.8°F16.0°C 94% 3.0 mph SSW4.8 kmh SSW 8.0 mph12.9 kmh 29.98 in1015.2 mb 0.00 in0.0 mm 0.00 in0.0 mm 0.00 in0.0 mm
03:45 AM 62.6°F17.0°C 60.8°F16.0°C 94% 2.9 mph S4.7 kmh S 7.0 mph11.3 kmh 29.99 in1015.6 mb 0.00 in0.0 mm 0.00 in0.0 mm 0.00 in0.0 mm
03:40 AM 62.6°F17.0°C 60.5°F15.8°C 93% 2.9 mph S4.7 kmh S 9.0 mph14.5 kmh 29.99 in1015.6 mb 0.00 in0.0 mm 0.00 in0.0 mm 0.00 in0.0 mm
03:35 AM 62.6°F17.0°C 60.5°F15.8°C 93% 3.0 mph S4.8 kmh S 9.0 mph14.5 kmh 29.99 in1015.6 mb 0.00 in0.0 mm 0.00 in0.0 mm 0.00 in0.0 mm
03:30 AM 62.6°F17.0°C 60.5°F15.8°C 93% 2.8 mph SSW4.5 kmh SSW 9.0 mph14.5 kmh 29.99 in1015.6 mb 0.00 in0.0 mm 0.00 in0.0 mm 0.00 in0.0 mm
03:25 AM 62.7°F17.1°C 60.6°F15.9°C 93% 2.7 mph S4.3 kmh S 9.0 mph14.5 kmh 30.00 in1015.9 mb 0.00 in0.0 mm 0.00 in0.0 mm 0.00 in0.0 mm
03:20 AM 62.7°F17.1°C 60.3°F15.7°C 92% 2.6 mph SSW4.2 kmh SSW 9.0 mph14.5 kmh 30.00 in1015.9 mb 0.00 in0.0 mm 0.00 in0.0 mm 0.00 in0.0 mm
03:15 AM 62.8°F17.1°C 60.4°F15.8°C 92% 2.3 mph SW3.7 kmh SW 7.0 mph11.3 kmh 30.00 in1015.9 mb 0.00 in0.0 mm 0.00 in0.0 mm 0.00 in0.0 mm
03:10 AM 62.8°F17.1°C 60.4°F15.8°C 92% 2.6 mph SW4.2 kmh SW 7.0 mph11.3 kmh 30.00 in1015.9 mb 0.00 in0.0 mm 0.00 in0.0 mm 0.00 in0.0 mm
03:05 AM 62.8°F17.1°C 60.4°F15.8°C 92% 3.3 mph S5.3 kmh S 11.0 mph17.7 kmh 30.00 in1015.9 mb 0.00 in0.0 mm 0.00 in0.0 mm 0.00 in0.0 mm
03:00 AM 62.8°F17.1°C 60.4°F15.8°C 92% 3.6 mph SSW5.8 kmh SSW 11.0 mph17.7 kmh 30.00 in1015.9 mb 0.00 in0.0 mm 0.00 in0.0 mm 0.00 in0.0 mm
02:55 AM 62.8°F17.1°C 60.4°F15.8°C 92% 3.2 mph SSW5.1 kmh SSW 9.0 mph14.5 kmh 30.01 in1016.3 mb 0.00 in0.0 mm 0.00 in0.0 mm 0.00 in0.0 mm
02:50 AM 62.8°F17.1°C 60.1°F15.6°C 91% 2.4 mph SSW3.9 kmh SSW 9.0 mph14.5 kmh 30.01 in1016.3 mb 0.00 in0.0 mm 0.00 in0.0 mm 0.00 in0.0 mm
02:45 AM 62.8°F17.1°C 60.1°F15.6°C 91% 2.0 mph SSW3.2 kmh SSW 6.0 mph9.7 kmh 30.01 in1016.3 mb 0.00 in0.0 mm 0.00 in0.0 mm 0.00 in0.0 mm
02:40 AM 62.8°F17.1°C 60.1°F15.6°C 91% 2.0 mph SSW3.2 kmh SSW 5.0 mph8.0 kmh 30.01 in1016.3 mb 0.00 in0.0 mm 0.00 in0.0 mm 0.00 in0.0 mm
02:35 AM 62.8°F17.1°C 60.1°F15.6°C 91% 2.0 mph SW3.2 kmh SW 5.0 mph8.0 kmh 30.02 in1016.6 mb 0.00 in0.0 mm 0.00 in0.0 mm 0.00 in0.0 mm
02:30 AM 62.8°F17.1°C 60.1°F15.6°C 91% 2.0 mph SSW3.2 kmh SSW 8.0 mph12.9 kmh 30.02 in1016.6 mb 0.00 in0.0 mm 0.00 in0.0 mm 0.00 in0.0 mm
02:25 AM 62.8°F17.1°C 60.1°F15.6°C 91% 2.3 mph SW3.7 kmh SW 8.0 mph12.9 kmh 30.02 in1016.6 mb 0.00 in0.0 mm 0.00 in0.0 mm 0.00 in0.0 mm
02:20 AM 62.7°F17.1°C 60.0°F15.6°C 91% 2.8 mph SW4.5 kmh SW 6.0 mph9.7 kmh 30.02 in1016.6 mb 0.00 in0.0 mm 0.00 in0.0 mm 0.00 in0.0 mm
02:15 AM 62.7°F17.1°C 60.0°F15.6°C 91% 3.0 mph SSW4.8 kmh SSW 8.0 mph12.9 kmh 30.02 in1016.6 mb 0.00 in0.0 mm 0.00 in0.0 mm 0.00 in0.0 mm
02:10 AM 62.8°F17.1°C 60.1°F15.6°C 91% 3.0 mph SSW4.8 kmh SSW 8.0 mph12.9 kmh 30.02 in1016.6 mb 0.00 in0.0 mm 0.00 in0.0 mm 0.00 in0.0 mm
02:05 AM 62.8°F17.1°C 60.1°F15.6°C 91% 2.9 mph SW4.7 kmh SW 9.0 mph14.5 kmh 30.02 in1016.6 mb 0.00 in0.0 mm 0.00 in0.0 mm 0.00 in0.0 mm
02:00 AM 62.8°F17.1°C 60.1°F15.6°C 91% 2.9 mph SW4.7 kmh SW 9.0 mph14.5 kmh 30.02 in1016.6 mb 0.00 in0.0 mm 0.00 in0.0 mm 0.00 in0.0 mm
01:55 AM 62.8°F17.1°C 60.1°F15.6°C 91% 3.0 mph SW4.8 kmh SW 8.0 mph12.9 kmh 30.02 in1016.6 mb 0.00 in0.0 mm 0.00 in0.0 mm 0.00 in0.0 mm
01:50 AM 62.7°F17.1°C 60.0°F15.6°C 91% 2.8 mph SW4.5 kmh SW 8.0 mph12.9 kmh 30.02 in1016.6 mb 0.00 in0.0 mm 0.00 in0.0 mm 0.00 in0.0 mm
01:45 AM 62.7°F17.1°C 60.0°F15.6°C 91% 2.6 mph SW4.2 kmh SW 8.0 mph12.9 kmh 30.03 in1016.9 mb 0.00 in0.0 mm 0.00 in0.0 mm 0.00 in0.0 mm
01:40 AM 62.7°F17.1°C 59.7°F15.4°C 90% 2.8 mph SSW4.5 kmh SSW 7.0 mph11.3 kmh 30.03 in1016.9 mb 0.00 in0.0 mm 0.00 in0.0 mm 0.00 in0.0 mm
01:35 AM 62.6°F17.0°C 59.6°F15.3°C 90% 3.0 mph SW4.8 kmh SW 8.0 mph12.9 kmh 30.03 in1016.9 mb 0.00 in0.0 mm 0.00 in0.0 mm 0.00 in0.0 mm
01:30 AM 62.6°F17.0°C 59.6°F15.3°C 90% 3.0 mph SW4.8 kmh SW 8.0 mph12.9 kmh 30.03 in1016.9 mb 0.00 in0.0 mm 0.00 in0.0 mm 0.00 in0.0 mm
01:25 AM 62.5°F16.9°C 59.5°F15.3°C 90% 3.2 mph SW5.1 kmh SW 10.0 mph16.1 kmh 30.03 in1016.9 mb 0.00 in0.0 mm 0.00 in0.0 mm 0.00 in0.0 mm
01:20 AM 62.5°F16.9°C 59.5°F15.3°C 90% 3.7 mph SW6.0 kmh SW 10.0 mph16.1 kmh 30.04 in1017.3 mb 0.00 in0.0 mm 0.00 in0.0 mm 0.00 in0.0 mm
01:15 AM 62.5°F16.9°C 59.5°F15.3°C 90% 3.9 mph SW6.3 kmh SW 9.0 mph14.5 kmh 30.04 in1017.3 mb 0.00 in0.0 mm 0.00 in0.0 mm 0.00 in0.0 mm
01:10 AM 62.5°F16.9°C 59.5°F15.3°C 90% 3.8 mph SW6.1 kmh SW 9.0 mph14.5 kmh 30.04 in1017.3 mb 0.00 in0.0 mm 0.00 in0.0 mm 0.00 in0.0 mm
01:05 AM 62.5°F16.9°C 59.5°F15.3°C 90% 3.5 mph SW5.6 kmh SW 9.0 mph14.5 kmh 30.04 in1017.3 mb 0.00 in0.0 mm 0.00 in0.0 mm 0.00 in0.0 mm
01:00 AM 62.5°F16.9°C 59.5°F15.3°C 90% 3.1 mph SW5.0 kmh SW 10.0 mph16.1 kmh 30.04 in1017.3 mb 0.00 in0.0 mm 0.00 in0.0 mm 0.00 in0.0 mm
12:55 AM 62.5°F16.9°C 59.5°F15.3°C 90% 2.8 mph SW4.5 kmh SW 10.0 mph16.1 kmh 30.04 in1017.3 mb 0.00 in0.0 mm 0.00 in0.0 mm 0.00 in0.0 mm
12:50 AM 62.5°F16.9°C 59.5°F15.3°C 90% 2.5 mph SW4.0 kmh SW 9.0 mph14.5 kmh 30.04 in1017.3 mb 0.00 in0.0 mm 0.00 in0.0 mm 0.00 in0.0 mm
12:45 AM 62.5°F16.9°C 59.5°F15.3°C 90% 2.2 mph SW3.5 kmh SW 9.0 mph14.5 kmh 30.04 in1017.3 mb 0.00 in0.0 mm 0.00 in0.0 mm 0.00 in0.0 mm
12:40 AM 62.4°F16.9°C 59.4°F15.2°C 90% 2.0 mph SW3.2 kmh SW 9.0 mph14.5 kmh 30.04 in1017.3 mb 0.00 in0.0 mm 0.00 in0.0 mm 0.00 in0.0 mm
12:35 AM 62.4°F16.9°C 59.4°F15.2°C 90% 2.0 mph SSW3.2 kmh SSW 6.0 mph9.7 kmh 30.05 in1017.6 mb 0.00 in0.0 mm 0.00 in0.0 mm 0.00 in0.0 mm
12:30 AM 62.5°F16.9°C 59.5°F15.3°C 90% 2.0 mph S3.2 kmh S 7.0 mph11.3 kmh 30.05 in1017.6 mb 0.00 in0.0 mm 0.00 in0.0 mm 0.00 in0.0 mm
12:25 AM 62.5°F16.9°C 59.5°F15.3°C 90% 2.0 mph S3.2 kmh S 7.0 mph11.3 kmh 30.05 in1017.6 mb 0.00 in0.0 mm 0.00 in0.0 mm 0.00 in0.0 mm
12:20 AM 62.5°F16.9°C 59.5°F15.3°C 90% 2.0 mph SSW3.2 kmh SSW 7.0 mph11.3 kmh 30.05 in1017.6 mb 0.00 in0.0 mm 0.00 in0.0 mm 0.00 in0.0 mm
12:15 AM 62.5°F16.9°C 59.5°F15.3°C 90% 2.0 mph SW3.2 kmh SW 7.0 mph11.3 kmh 30.05 in1017.6 mb 0.00 in0.0 mm 0.00 in0.0 mm 0.00 in0.0 mm
12:10 AM 62.5°F16.9°C 59.5°F15.3°C 90% 2.0 mph SSW3.2 kmh SSW 7.0 mph11.3 kmh 30.05 in1017.6 mb 0.00 in0.0 mm 0.00 in0.0 mm 0.00 in0.0 mm
12:05 AM 62.4°F16.9°C 59.4°F15.2°C 90% 2.0 mph SSW3.2 kmh SSW 7.0 mph11.3 kmh 30.06 in1017.9 mb 0.00 in0.0 mm 0.00 in0.0 mm 0.00 in0.0 mm
12:00 AM 62.4°F16.9°C 59.4°F15.2°C 90% 2.0 mph SSW3.2 kmh SSW 5.0 mph8.0 kmh 30.06 in1017.9 mb 0.00 in0.0 mm 0.00 in0.0 mm 0.00 in0.0 mm